sensor_id;sensor_type;location;lat;lon;timestamp;P1;durP1;ratioP1;P2;durP2;ratioP2
35558;SDS011;21661;50.794;-1.066;2023-04-29T00:00:06;9.32;;;6.25;;
35558;SDS011;21661;50.794;-1.066;2023-04-29T00:02:32;13.50;;;7.22;;
35558;SDS011;21661;50.794;-1.066;2023-04-29T00:04:58;11.23;;;6.68;;
35558;SDS011;21661;50.794;-1.066;2023-04-29T00:07:24;13.10;;;7.00;;
35558;SDS011;21661;50.794;-1.066;2023-04-29T00:09:50;11.63;;;6.85;;
35558;SDS011;21661;50.794;-1.066;2023-04-29T00:12:15;14.75;;;7.28;;
35558;SDS011;21661;50.794;-1.066;2023-04-29T00:14:41;13.65;;;7.63;;
35558;SDS011;21661;50.794;-1.066;2023-04-29T00:17:07;14.88;;;7.22;;
35558;SDS011;21661;50.794;-1.066;2023-04-29T00:19:33;13.98;;;8.15;;
35558;SDS011;21661;50.794;-1.066;2023-04-29T00:21:58;12.43;;;7.38;;
35558;SDS011;21661;50.794;-1.066;2023-04-29T00:24:25;12.20;;;7.35;;
35558;SDS011;21661;50.794;-1.066;2023-04-29T00:26:51;11.95;;;7.15;;
35558;SDS011;21661;50.794;-1.066;2023-04-29T00:29:16;10.82;;;7.32;;
35558;SDS011;21661;50.794;-1.066;2023-04-29T00:31:43;12.38;;;7.57;;
35558;SDS011;21661;50.794;-1.066;2023-04-29T00:34:09;13.63;;;8.13;;
35558;SDS011;21661;50.794;-1.066;2023-04-29T00:36:35;14.00;;;8.15;;
35558;SDS011;21661;50.794;-1.066;2023-04-29T00:39:00;11.43;;;7.97;;
35558;SDS011;21661;50.794;-1.066;2023-04-29T00:41:26;14.13;;;9.27;;
35558;SDS011;21661;50.794;-1.066;2023-04-29T00:43:53;15.70;;;10.93;;
35558;SDS011;21661;50.794;-1.066;2023-04-29T00:46:19;18.88;;;11.63;;
35558;SDS011;21661;50.794;-1.066;2023-04-29T00:48:45;24.92;;;15.75;;
35558;SDS011;21661;50.794;-1.066;2023-04-29T00:51:10;17.88;;;11.68;;
35558;SDS011;21661;50.794;-1.066;2023-04-29T00:53:37;16.83;;;9.07;;
35558;SDS011;21661;50.794;-1.066;2023-04-29T00:56:03;15.88;;;9.57;;
35558;SDS011;21661;50.794;-1.066;2023-04-29T00:58:31;14.43;;;9.95;;
35558;SDS011;21661;50.794;-1.066;2023-04-29T01:01:02;14.10;;;9.50;;
35558;SDS011;21661;50.794;-1.066;2023-04-29T01:03:28;17.90;;;10.07;;
35558;SDS011;21661;50.794;-1.066;2023-04-29T01:12:44;21.27;;;12.45;;
35558;SDS011;21661;50.794;-1.066;2023-04-29T01:14:37;17.42;;;10.73;;
35558;SDS011;21661;50.794;-1.066;2023-04-29T01:17:05;18.33;;;10.30;;
35558;SDS011;21661;50.794;-1.066;2023-04-29T01:22:11;17.92;;;10.90;;
35558;SDS011;21661;50.794;-1.066;2023-04-29T01:24:42;18.33;;;10.73;;
35558;SDS011;21661;50.794;-1.066;2023-04-29T01:27:30;19.08;;;10.50;;
35558;SDS011;21661;50.794;-1.066;2023-04-29T01:32:42;16.77;;;10.32;;
35558;SDS011;21661;50.794;-1.066;2023-04-29T01:35:33;19.90;;;10.52;;
35558;SDS011;21661;50.794;-1.066;2023-04-29T01:43:50;23.27;;;13.00;;
35558;SDS011;21661;50.794;-1.066;2023-04-29T01:46:16;25.08;;;13.27;;
35558;SDS011;21661;50.794;-1.066;2023-04-29T01:48:45;25.88;;;15.45;;
35558;SDS011;21661;50.794;-1.066;2023-04-29T01:51:11;30.77;;;16.65;;
35558;SDS011;21661;50.794;-1.066;2023-04-29T01:53:37;28.13;;;16.50;;
35558;SDS011;21661;50.794;-1.066;2023-04-29T01:56:06;27.55;;;16.58;;
35558;SDS011;21661;50.794;-1.066;2023-04-29T01:58:32;31.85;;;18.90;;
35558;SDS011;21661;50.794;-1.066;2023-04-29T02:00:58;33.45;;;19.52;;
35558;SDS011;21661;50.794;-1.066;2023-04-29T02:03:23;38.47;;;19.63;;
35558;SDS011;21661;50.794;-1.066;2023-04-29T02:05:49;33.65;;;19.63;;
35558;SDS011;21661;50.794;-1.066;2023-04-29T02:08:15;31.50;;;18.15;;
35558;SDS011;21661;50.794;-1.066;2023-04-29T02:10:49;32.25;;;18.45;;
35558;SDS011;21661;50.794;-1.066;2023-04-29T02:15:48;32.58;;;17.67;;
35558;SDS011;21661;50.794;-1.066;2023-04-29T02:18:14;33.55;;;20.10;;
35558;SDS011;21661;50.794;-1.066;2023-04-29T02:20:40;36.13;;;20.35;;
35558;SDS011;21661;50.794;-1.066;2023-04-29T02:23:06;33.55;;;18.90;;
35558;SDS011;21661;50.794;-1.066;2023-04-29T02:25:31;33.30;;;19.35;;
35558;SDS011;21661;50.794;-1.066;2023-04-29T02:27:57;31.15;;;17.85;;
35558;SDS011;21661;50.794;-1.066;2023-04-29T02:30:22;31.25;;;18.10;;
35558;SDS011;21661;50.794;-1.066;2023-04-29T02:32:48;32.15;;;17.98;;
35558;SDS011;21661;50.794;-1.066;2023-04-29T02:35:14;31.50;;;18.25;;
35558;SDS011;21661;50.794;-1.066;2023-04-29T02:37:40;28.75;;;18.05;;
35558;SDS011;21661;50.794;-1.066;2023-04-29T02:40:06;33.72;;;18.42;;
35558;SDS011;21661;50.794;-1.066;2023-04-29T02:42:32;32.38;;;17.42;;
35558;SDS011;21661;50.794;-1.066;2023-04-29T02:44:57;43.47;;;19.48;;
35558;SDS011;21661;50.794;-1.066;2023-04-29T02:47:23;33.03;;;18.40;;
35558;SDS011;21661;50.794;-1.066;2023-04-29T02:49:48;32.72;;;19.58;;
35558;SDS011;21661;50.794;-1.066;2023-04-29T02:52:14;36.22;;;22.00;;
35558;SDS011;21661;50.794;-1.066;2023-04-29T02:54:41;32.22;;;19.00;;
35558;SDS011;21661;50.794;-1.066;2023-04-29T02:57:06;33.50;;;19.17;;
35558;SDS011;21661;50.794;-1.066;2023-04-29T02:59:32;31.80;;;19.40;;
35558;SDS011;21661;50.794;-1.066;2023-04-29T03:01:58;34.20;;;19.50;;
35558;SDS011;21661;50.794;-1.066;2023-04-29T03:04:25;37.42;;;20.60;;
35558;SDS011;21661;50.794;-1.066;2023-04-29T03:06:53;38.00;;;20.80;;
35558;SDS011;21661;50.794;-1.066;2023-04-29T03:09:20;36.80;;;21.58;;
35558;SDS011;21661;50.794;-1.066;2023-04-29T03:11:46;43.67;;;24.15;;
35558;SDS011;21661;50.794;-1.066;2023-04-29T03:14:12;40.03;;;23.38;;
35558;SDS011;21661;50.794;-1.066;2023-04-29T03:16:38;40.38;;;23.65;;
35558;SDS011;21661;50.794;-1.066;2023-04-29T03:19:03;41.08;;;24.13;;
35558;SDS011;21661;50.794;-1.066;2023-04-29T03:21:29;41.58;;;23.17;;
35558;SDS011;21661;50.794;-1.066;2023-04-29T03:23:54;40.05;;;22.52;;
35558;SDS011;21661;50.794;-1.066;2023-04-29T03:26:20;41.25;;;23.52;;
35558;SDS011;21661;50.794;-1.066;2023-04-29T03:28:49;40.28;;;22.40;;
35558;SDS011;21661;50.794;-1.066;2023-04-29T03:31:14;46.80;;;24.02;;
35558;SDS011;21661;50.794;-1.066;2023-04-29T03:33:41;60.00;;;31.63;;
35558;SDS011;21661;50.794;-1.066;2023-04-29T03:36:06;41.70;;;23.67;;
35558;SDS011;21661;50.794;-1.066;2023-04-29T03:38:32;39.25;;;24.42;;
35558;SDS011;21661;50.794;-1.066;2023-04-29T03:40:58;43.17;;;23.88;;
35558;SDS011;21661;50.794;-1.066;2023-04-29T03:43:24;41.38;;;24.42;;
35558;SDS011;21661;50.794;-1.066;2023-04-29T03:45:50;47.30;;;26.08;;
35558;SDS011;21661;50.794;-1.066;2023-04-29T03:48:16;49.42;;;26.42;;
35558;SDS011;21661;50.794;-1.066;2023-04-29T03:50:42;44.65;;;25.40;;
35558;SDS011;21661;50.794;-1.066;2023-04-29T03:53:08;47.90;;;26.20;;
35558;SDS011;21661;50.794;-1.066;2023-04-29T03:55:33;48.25;;;26.77;;
35558;SDS011;21661;50.794;-1.066;2023-04-29T03:57:59;49.75;;;27.02;;
35558;SDS011;21661;50.794;-1.066;2023-04-29T04:00:25;52.47;;;28.13;;
35558;SDS011;21661;50.794;-1.066;2023-04-29T04:02:54;49.60;;;27.30;;
35558;SDS011;21661;50.794;-1.066;2023-04-29T04:05:20;49.47;;;27.05;;
35558;SDS011;21661;50.794;-1.066;2023-04-29T04:07:49;52.03;;;27.92;;
35558;SDS011;21661;50.794;-1.066;2023-04-29T04:10:15;52.97;;;28.30;;
35558;SDS011;21661;50.794;-1.066;2023-04-29T04:12:41;53.47;;;27.00;;
35558;SDS011;21661;50.794;-1.066;2023-04-29T04:15:06;55.53;;;28.05;;
35558;SDS011;21661;50.794;-1.066;2023-04-29T04:17:32;50.50;;;27.65;;
35558;SDS011;21661;50.794;-1.066;2023-04-29T04:19:58;54.20;;;29.05;;
35558;SDS011;21661;50.794;-1.066;2023-04-29T04:22:23;53.17;;;27.98;;
35558;SDS011;21661;50.794;-1.066;2023-04-29T04:24:49;49.72;;;26.83;;
35558;SDS011;21661;50.794;-1.066;2023-04-29T04:27:14;47.88;;;24.58;;
35558;SDS011;21661;50.794;-1.066;2023-04-29T04:29:40;45.95;;;25.65;;
35558;SDS011;21661;50.794;-1.066;2023-04-29T04:32:06;48.35;;;26.52;;
35558;SDS011;21661;50.794;-1.066;2023-04-29T04:34:31;48.28;;;26.77;;
35558;SDS011;21661;50.794;-1.066;2023-04-29T04:36:57;46.72;;;26.15;;
35558;SDS011;21661;50.794;-1.066;2023-04-29T04:39:22;44.58;;;25.40;;
35558;SDS011;21661;50.794;-1.066;2023-04-29T04:41:48;43.17;;;24.95;;
35558;SDS011;21661;50.794;-1.066;2023-04-29T04:44:13;46.15;;;25.20;;
35558;SDS011;21661;50.794;-1.066;2023-04-29T04:46:40;43.20;;;24.67;;
35558;SDS011;21661;50.794;-1.066;2023-04-29T04:49:06;41.17;;;24.50;;
35558;SDS011;21661;50.794;-1.066;2023-04-29T04:51:32;42.33;;;23.98;;
35558;SDS011;21661;50.794;-1.066;2023-04-29T04:53:57;41.22;;;23.95;;
35558;SDS011;21661;50.794;-1.066;2023-04-29T04:56:23;45.10;;;25.15;;
35558;SDS011;21661;50.794;-1.066;2023-04-29T04:58:48;45.72;;;25.70;;
35558;SDS011;21661;50.794;-1.066;2023-04-29T05:01:14;43.63;;;24.65;;
35558;SDS011;21661;50.794;-1.066;2023-04-29T05:03:40;41.65;;;24.02;;
35558;SDS011;21661;50.794;-1.066;2023-04-29T05:06:05;43.70;;;25.23;;
35558;SDS011;21661;50.794;-1.066;2023-04-29T05:08:31;44.22;;;24.40;;
35558;SDS011;21661;50.794;-1.066;2023-04-29T05:10:56;45.35;;;24.60;;
35558;SDS011;21661;50.794;-1.066;2023-04-29T05:13:22;40.20;;;23.33;;
35558;SDS011;21661;50.794;-1.066;2023-04-29T05:15:49;46.28;;;24.30;;
35558;SDS011;21661;50.794;-1.066;2023-04-29T05:18:15;42.72;;;24.17;;
35558;SDS011;21661;50.794;-1.066;2023-04-29T05:20:41;41.78;;;24.90;;
35558;SDS011;21661;50.794;-1.066;2023-04-29T05:23:06;43.08;;;24.25;;
35558;SDS011;21661;50.794;-1.066;2023-04-29T05:25:33;44.83;;;24.15;;
35558;SDS011;21661;50.794;-1.066;2023-04-29T05:27:58;41.03;;;23.70;;
35558;SDS011;21661;50.794;-1.066;2023-04-29T05:30:24;46.63;;;24.27;;
35558;SDS011;21661;50.794;-1.066;2023-04-29T05:32:49;41.13;;;23.67;;
35558;SDS011;21661;50.794;-1.066;2023-04-29T05:35:15;41.45;;;23.92;;
35558;SDS011;21661;50.794;-1.066;2023-04-29T05:37:41;43.47;;;24.58;;
35558;SDS011;21661;50.794;-1.066;2023-04-29T05:40:07;40.50;;;22.77;;
35558;SDS011;21661;50.794;-1.066;2023-04-29T05:42:33;39.58;;;23.50;;
35558;SDS011;21661;50.794;-1.066;2023-04-29T05:44:59;37.65;;;22.33;;
35558;SDS011;21661;50.794;-1.066;2023-04-29T05:47:24;38.10;;;23.25;;
35558;SDS011;21661;50.794;-1.066;2023-04-29T05:49:50;43.55;;;24.35;;
35558;SDS011;21661;50.794;-1.066;2023-04-29T05:52:16;39.17;;;22.90;;
35558;SDS011;21661;50.794;-1.066;2023-04-29T05:54:41;41.90;;;23.45;;
35558;SDS011;21661;50.794;-1.066;2023-04-29T05:57:07;40.85;;;24.30;;
35558;SDS011;21661;50.794;-1.066;2023-04-29T05:59:33;44.80;;;24.10;;
35558;SDS011;21661;50.794;-1.066;2023-04-29T06:01:59;43.60;;;24.13;;
35558;SDS011;21661;50.794;-1.066;2023-04-29T06:04:25;39.45;;;23.38;;
35558;SDS011;21661;50.794;-1.066;2023-04-29T06:06:51;39.78;;;23.48;;
35558;SDS011;21661;50.794;-1.066;2023-04-29T06:09:18;39.45;;;22.20;;
35558;SDS011;21661;50.794;-1.066;2023-04-29T06:11:44;43.38;;;24.70;;
35558;SDS011;21661;50.794;-1.066;2023-04-29T06:14:10;41.13;;;24.00;;
35558;SDS011;21661;50.794;-1.066;2023-04-29T06:16:36;44.75;;;25.13;;
35558;SDS011;21661;50.794;-1.066;2023-04-29T06:19:01;44.78;;;24.65;;
35558;SDS011;21661;50.794;-1.066;2023-04-29T06:21:27;40.03;;;24.08;;
35558;SDS011;21661;50.794;-1.066;2023-04-29T06:23:53;41.17;;;25.42;;
35558;SDS011;21661;50.794;-1.066;2023-04-29T06:26:19;42.28;;;25.33;;
35558;SDS011;21661;50.794;-1.066;2023-04-29T06:28:45;44.78;;;25.13;;
35558;SDS011;21661;50.794;-1.066;2023-04-29T06:31:11;47.33;;;27.10;;
35558;SDS011;21661;50.794;-1.066;2023-04-29T06:33:37;44.17;;;26.08;;
35558;SDS011;21661;50.794;-1.066;2023-04-29T06:36:03;44.63;;;26.48;;
35558;SDS011;21661;50.794;-1.066;2023-04-29T06:38:29;41.85;;;24.50;;
35558;SDS011;21661;50.794;-1.066;2023-04-29T06:40:55;42.08;;;24.85;;
35558;SDS011;21661;50.794;-1.066;2023-04-29T06:43:24;43.13;;;24.77;;
35558;SDS011;21661;50.794;-1.066;2023-04-29T06:45:56;42.42;;;25.05;;
35558;SDS011;21661;50.794;-1.066;2023-04-29T06:48:22;42.78;;;25.50;;
35558;SDS011;21661;50.794;-1.066;2023-04-29T06:50:51;41.40;;;24.48;;
35558;SDS011;21661;50.794;-1.066;2023-04-29T06:53:17;39.63;;;23.70;;
35558;SDS011;21661;50.794;-1.066;2023-04-29T06:55:43;41.85;;;25.75;;
35558;SDS011;21661;50.794;-1.066;2023-04-29T06:58:10;45.92;;;26.38;;
35558;SDS011;21661;50.794;-1.066;2023-04-29T07:00:37;43.67;;;25.58;;
35558;SDS011;21661;50.794;-1.066;2023-04-29T07:03:03;45.08;;;26.27;;
35558;SDS011;21661;50.794;-1.066;2023-04-29T07:05:28;41.72;;;25.05;;
35558;SDS011;21661;50.794;-1.066;2023-04-29T07:07:54;43.00;;;25.02;;
35558;SDS011;21661;50.794;-1.066;2023-04-29T07:10:19;42.85;;;24.55;;
35558;SDS011;21661;50.794;-1.066;2023-04-29T07:12:45;42.58;;;25.15;;
35558;SDS011;21661;50.794;-1.066;2023-04-29T07:15:10;39.75;;;24.17;;
35558;SDS011;21661;50.794;-1.066;2023-04-29T07:17:36;42.60;;;25.05;;
35558;SDS011;21661;50.794;-1.066;2023-04-29T07:20:02;40.38;;;24.42;;
35558;SDS011;21661;50.794;-1.066;2023-04-29T07:22:28;47.53;;;26.27;;
35558;SDS011;21661;50.794;-1.066;2023-04-29T07:24:54;42.38;;;24.35;;
35558;SDS011;21661;50.794;-1.066;2023-04-29T07:27:19;42.30;;;25.10;;
35558;SDS011;21661;50.794;-1.066;2023-04-29T07:29:45;41.92;;;24.52;;
35558;SDS011;21661;50.794;-1.066;2023-04-29T07:32:11;39.40;;;23.63;;
35558;SDS011;21661;50.794;-1.066;2023-04-29T07:34:37;45.55;;;24.45;;
35558;SDS011;21661;50.794;-1.066;2023-04-29T07:37:03;44.25;;;24.60;;
35558;SDS011;21661;50.794;-1.066;2023-04-29T07:39:28;40.03;;;23.20;;
35558;SDS011;21661;50.794;-1.066;2023-04-29T07:41:54;40.33;;;23.08;;
35558;SDS011;21661;50.794;-1.066;2023-04-29T07:44:20;40.20;;;24.73;;
35558;SDS011;21661;50.794;-1.066;2023-04-29T07:46:46;41.05;;;24.55;;
35558;SDS011;21661;50.794;-1.066;2023-04-29T07:49:12;40.65;;;25.10;;
35558;SDS011;21661;50.794;-1.066;2023-04-29T07:51:41;38.10;;;24.33;;
35558;SDS011;21661;50.794;-1.066;2023-04-29T07:54:09;37.97;;;22.70;;
35558;SDS011;21661;50.794;-1.066;2023-04-29T07:56:34;39.20;;;23.40;;
35558;SDS011;21661;50.794;-1.066;2023-04-29T07:59:00;40.80;;;23.52;;
35558;SDS011;21661;50.794;-1.066;2023-04-29T08:01:26;40.35;;;24.42;;
35558;SDS011;21661;50.794;-1.066;2023-04-29T08:03:52;40.75;;;23.65;;
35558;SDS011;21661;50.794;-1.066;2023-04-29T08:06:18;43.08;;;25.58;;
35558;SDS011;21661;50.794;-1.066;2023-04-29T08:08:46;40.80;;;22.95;;
35558;SDS011;21661;50.794;-1.066;2023-04-29T08:11:16;43.15;;;23.88;;
35558;SDS011;21661;50.794;-1.066;2023-04-29T08:13:45;40.45;;;23.85;;
35558;SDS011;21661;50.794;-1.066;2023-04-29T08:16:11;40.33;;;23.08;;
35558;SDS011;21661;50.794;-1.066;2023-04-29T08:18:38;37.95;;;23.38;;
35558;SDS011;21661;50.794;-1.066;2023-04-29T08:21:03;39.75;;;22.92;;
35558;SDS011;21661;50.794;-1.066;2023-04-29T08:23:29;38.13;;;23.45;;
35558;SDS011;21661;50.794;-1.066;2023-04-29T08:25:56;37.90;;;23.33;;
35558;SDS011;21661;50.794;-1.066;2023-04-29T08:28:21;37.72;;;22.83;;
35558;SDS011;21661;50.794;-1.066;2023-04-29T08:30:47;42.10;;;24.67;;
35558;SDS011;21661;50.794;-1.066;2023-04-29T08:33:13;37.65;;;23.02;;
35558;SDS011;21661;50.794;-1.066;2023-04-29T08:35:39;40.55;;;23.90;;
35558;SDS011;21661;50.794;-1.066;2023-04-29T08:38:05;43.10;;;24.88;;
35558;SDS011;21661;50.794;-1.066;2023-04-29T08:40:50;40.42;;;23.67;;
35558;SDS011;21661;50.794;-1.066;2023-04-29T08:43:15;40.03;;;22.55;;
35558;SDS011;21661;50.794;-1.066;2023-04-29T08:45:42;41.65;;;23.10;;
35558;SDS011;21661;50.794;-1.066;2023-04-29T08:48:08;40.65;;;23.52;;
35558;SDS011;21661;50.794;-1.066;2023-04-29T08:50:37;39.47;;;22.63;;
35558;SDS011;21661;50.794;-1.066;2023-04-29T08:53:07;41.45;;;22.90;;
35558;SDS011;21661;50.794;-1.066;2023-04-29T08:55:34;40.53;;;22.58;;
35558;SDS011;21661;50.794;-1.066;2023-04-29T08:58:05;38.22;;;23.33;;
35558;SDS011;21661;50.794;-1.066;2023-04-29T09:00:32;42.75;;;23.73;;
35558;SDS011;21661;50.794;-1.066;2023-04-29T09:02:59;39.53;;;22.77;;
35558;SDS011;21661;50.794;-1.066;2023-04-29T09:05:28;37.72;;;22.17;;
35558;SDS011;21661;50.794;-1.066;2023-04-29T09:07:55;36.70;;;22.25;;
35558;SDS011;21661;50.794;-1.066;2023-04-29T09:10:23;38.83;;;22.05;;
35558;SDS011;21661;50.794;-1.066;2023-04-29T09:12:50;39.30;;;22.08;;
35558;SDS011;21661;50.794;-1.066;2023-04-29T09:15:15;38.00;;;22.05;;
35558;SDS011;21661;50.794;-1.066;2023-04-29T09:17:45;36.17;;;21.33;;
35558;SDS011;21661;50.794;-1.066;2023-04-29T09:22:53;37.97;;;22.27;;
35558;SDS011;21661;50.794;-1.066;2023-04-29T09:25:27;36.90;;;21.30;;
35558;SDS011;21661;50.794;-1.066;2023-04-29T09:27:54;39.55;;;22.98;;
35558;SDS011;21661;50.794;-1.066;2023-04-29T09:30:20;40.60;;;22.13;;
35558;SDS011;21661;50.794;-1.066;2023-04-29T09:33:02;38.03;;;22.23;;
35558;SDS011;21661;50.794;-1.066;2023-04-29T09:35:30;36.97;;;22.00;;
35558;SDS011;21661;50.794;-1.066;2023-04-29T09:38:12;38.42;;;21.67;;
35558;SDS011;21661;50.794;-1.066;2023-04-29T09:40:40;39.85;;;22.23;;
35558;SDS011;21661;50.794;-1.066;2023-04-29T09:43:11;39.30;;;22.35;;
35558;SDS011;21661;50.794;-1.066;2023-04-29T09:45:42;37.33;;;21.88;;
35558;SDS011;21661;50.794;-1.066;2023-04-29T09:48:09;36.78;;;21.25;;
35558;SDS011;21661;50.794;-1.066;2023-04-29T09:50:36;35.75;;;21.40;;
35558;SDS011;21661;50.794;-1.066;2023-04-29T09:53:02;38.83;;;23.00;;
35558;SDS011;21661;50.794;-1.066;2023-04-29T09:55:30;37.33;;;21.40;;
35558;SDS011;21661;50.794;-1.066;2023-04-29T09:57:56;34.22;;;19.88;;
35558;SDS011;21661;50.794;-1.066;2023-04-29T10:00:22;31.15;;;19.05;;
35558;SDS011;21661;50.794;-1.066;2023-04-29T10:02:49;32.63;;;19.75;;
35558;SDS011;21661;50.794;-1.066;2023-04-29T10:05:18;31.95;;;18.63;;
35558;SDS011;21661;50.794;-1.066;2023-04-29T10:07:45;30.33;;;18.23;;
35558;SDS011;21661;50.794;-1.066;2023-04-29T10:10:12;36.63;;;19.90;;
35558;SDS011;21661;50.794;-1.066;2023-04-29T10:12:39;31.90;;;18.65;;
35558;SDS011;21661;50.794;-1.066;2023-04-29T10:17:51;32.08;;;18.13;;
35558;SDS011;21661;50.794;-1.066;2023-04-29T10:20:21;31.30;;;17.88;;
35558;SDS011;21661;50.794;-1.066;2023-04-29T10:22:49;35.72;;;19.00;;
35558;SDS011;21661;50.794;-1.066;2023-04-29T10:25:17;32.25;;;19.13;;
35558;SDS011;21661;50.794;-1.066;2023-04-29T10:27:44;32.38;;;18.13;;
35558;SDS011;21661;50.794;-1.066;2023-04-29T10:30:11;35.22;;;19.17;;
35558;SDS011;21661;50.794;-1.066;2023-04-29T10:32:44;33.38;;;18.42;;
35558;SDS011;21661;50.794;-1.066;2023-04-29T10:35:12;31.35;;;17.48;;
35558;SDS011;21661;50.794;-1.066;2023-04-29T10:37:39;34.70;;;18.55;;
35558;SDS011;21661;50.794;-1.066;2023-04-29T10:42:49;28.40;;;16.33;;
35558;SDS011;21661;50.794;-1.066;2023-04-29T10:45:19;32.08;;;16.45;;
35558;SDS011;21661;50.794;-1.066;2023-04-29T10:53:11;28.35;;;18.05;;
35558;SDS011;21661;50.794;-1.066;2023-04-29T10:55:45;26.85;;;16.48;;
35558;SDS011;21661;50.794;-1.066;2023-04-29T11:01:00;24.60;;;15.55;;
35558;SDS011;21661;50.794;-1.066;2023-04-29T11:03:46;26.20;;;15.07;;
35558;SDS011;21661;50.794;-1.066;2023-04-29T11:06:23;27.13;;;15.25;;
35558;SDS011;21661;50.794;-1.066;2023-04-29T11:09:03;26.92;;;15.75;;
35558;SDS011;21661;50.794;-1.066;2023-04-29T11:11:44;27.30;;;16.25;;
35558;SDS011;21661;50.794;-1.066;2023-04-29T11:14:26;24.50;;;15.25;;
35558;SDS011;21661;50.794;-1.066;2023-04-29T11:17:12;29.13;;;16.85;;
35558;SDS011;21661;50.794;-1.066;2023-04-29T11:19:44;23.67;;;15.05;;
35558;SDS011;21661;50.794;-1.066;2023-04-29T11:27:30;25.83;;;15.38;;
35558;SDS011;21661;50.794;-1.066;2023-04-29T11:30:01;24.80;;;14.95;;
35558;SDS011;21661;50.794;-1.066;2023-04-29T11:32:47;24.73;;;14.55;;
35558;SDS011;21661;50.794;-1.066;2023-04-29T11:35:17;26.05;;;14.73;;
35558;SDS011;21661;50.794;-1.066;2023-04-29T11:40:11;22.02;;;13.95;;
35558;SDS011;21661;50.794;-1.066;2023-04-29T11:42:47;26.08;;;14.18;;
35558;SDS011;21661;50.794;-1.066;2023-04-29T11:45:15;25.17;;;14.48;;
35558;SDS011;21661;50.794;-1.066;2023-04-29T11:47:42;25.40;;;15.48;;
35558;SDS011;21661;50.794;-1.066;2023-04-29T11:50:12;26.08;;;14.98;;
35558;SDS011;21661;50.794;-1.066;2023-04-29T11:52:40;24.33;;;14.85;;
35558;SDS011;21661;50.794;-1.066;2023-04-29T11:55:09;24.35;;;15.23;;
35558;SDS011;21661;50.794;-1.066;2023-04-29T11:57:36;26.40;;;14.77;;
35558;SDS011;21661;50.794;-1.066;2023-04-29T12:00:02;27.00;;;15.70;;
35558;SDS011;21661;50.794;-1.066;2023-04-29T12:02:31;22.15;;;13.90;;
35558;SDS011;21661;50.794;-1.066;2023-04-29T12:05:06;21.40;;;13.55;;
35558;SDS011;21661;50.794;-1.066;2023-04-29T12:07:32;23.73;;;14.38;;
35558;SDS011;21661;50.794;-1.066;2023-04-29T12:10:01;20.73;;;13.45;;
35558;SDS011;21661;50.794;-1.066;2023-04-29T12:12:27;24.90;;;13.45;;
35558;SDS011;21661;50.794;-1.066;2023-04-29T12:14:55;21.80;;;13.43;;
35558;SDS011;21661;50.794;-1.066;2023-04-29T12:17:21;22.08;;;12.88;;
35558;SDS011;21661;50.794;-1.066;2023-04-29T12:19:48;21.38;;;13.30;;
35558;SDS011;21661;50.794;-1.066;2023-04-29T12:22:14;21.63;;;13.27;;
35558;SDS011;21661;50.794;-1.066;2023-04-29T12:24:40;21.35;;;12.80;;
35558;SDS011;21661;50.794;-1.066;2023-04-29T12:27:08;27.70;;;14.05;;
35558;SDS011;21661;50.794;-1.066;2023-04-29T12:29:35;21.95;;;12.65;;
35558;SDS011;21661;50.794;-1.066;2023-04-29T12:32:01;21.35;;;12.50;;
35558;SDS011;21661;50.794;-1.066;2023-04-29T12:34:28;19.38;;;12.45;;
35558;SDS011;21661;50.794;-1.066;2023-04-29T12:36:55;21.08;;;12.48;;
35558;SDS011;21661;50.794;-1.066;2023-04-29T12:39:22;18.15;;;11.02;;
35558;SDS011;21661;50.794;-1.066;2023-04-29T12:41:48;22.77;;;12.63;;
35558;SDS011;21661;50.794;-1.066;2023-04-29T12:44:18;22.30;;;12.18;;
35558;SDS011;21661;50.794;-1.066;2023-04-29T12:46:44;22.48;;;12.10;;
35558;SDS011;21661;50.794;-1.066;2023-04-29T12:49:09;20.42;;;11.55;;
35558;SDS011;21661;50.794;-1.066;2023-04-29T12:51:35;18.35;;;9.95;;
35558;SDS011;21661;50.794;-1.066;2023-04-29T12:54:02;19.77;;;10.43;;
35558;SDS011;21661;50.794;-1.066;2023-04-29T12:56:30;17.98;;;10.10;;
35558;SDS011;21661;50.794;-1.066;2023-04-29T12:58:56;19.88;;;10.50;;
35558;SDS011;21661;50.794;-1.066;2023-04-29T13:01:29;15.88;;;9.50;;
35558;SDS011;21661;50.794;-1.066;2023-04-29T13:03:54;16.90;;;9.57;;
35558;SDS011;21661;50.794;-1.066;2023-04-29T13:06:20;15.77;;;9.77;;
35558;SDS011;21661;50.794;-1.066;2023-04-29T13:08:45;17.77;;;10.30;;
35558;SDS011;21661;50.794;-1.066;2023-04-29T13:11:11;14.98;;;9.70;;
35558;SDS011;21661;50.794;-1.066;2023-04-29T13:13:37;17.58;;;9.75;;
35558;SDS011;21661;50.794;-1.066;2023-04-29T13:16:03;15.70;;;9.38;;
35558;SDS011;21661;50.794;-1.066;2023-04-29T13:18:29;18.58;;;10.70;;
35558;SDS011;21661;50.794;-1.066;2023-04-29T13:20:54;17.55;;;10.27;;
35558;SDS011;21661;50.794;-1.066;2023-04-29T13:23:20;15.18;;;9.77;;
35558;SDS011;21661;50.794;-1.066;2023-04-29T13:25:45;17.55;;;9.85;;
35558;SDS011;21661;50.794;-1.066;2023-04-29T13:28:12;17.40;;;10.07;;
35558;SDS011;21661;50.794;-1.066;2023-04-29T13:30:38;15.48;;;10.15;;
35558;SDS011;21661;50.794;-1.066;2023-04-29T13:33:04;15.50;;;9.43;;
35558;SDS011;21661;50.794;-1.066;2023-04-29T13:35:29;16.05;;;9.40;;
35558;SDS011;21661;50.794;-1.066;2023-04-29T13:37:56;14.20;;;8.73;;
35558;SDS011;21661;50.794;-1.066;2023-04-29T13:40:21;15.55;;;9.73;;
35558;SDS011;21661;50.794;-1.066;2023-04-29T13:42:47;14.32;;;9.05;;
35558;SDS011;21661;50.794;-1.066;2023-04-29T13:45:13;12.35;;;8.43;;
35558;SDS011;21661;50.794;-1.066;2023-04-29T13:47:39;18.90;;;9.95;;
35558;SDS011;21661;50.794;-1.066;2023-04-29T13:50:05;15.55;;;9.85;;
35558;SDS011;21661;50.794;-1.066;2023-04-29T13:52:31;16.98;;;10.00;;
35558;SDS011;21661;50.794;-1.066;2023-04-29T13:54:56;16.73;;;9.98;;
35558;SDS011;21661;50.794;-1.066;2023-04-29T13:57:22;16.95;;;10.20;;
35558;SDS011;21661;50.794;-1.066;2023-04-29T13:59:48;15.88;;;9.40;;
35558;SDS011;21661;50.794;-1.066;2023-04-29T14:02:16;18.92;;;10.15;;
35558;SDS011;21661;50.794;-1.066;2023-04-29T14:04:42;21.35;;;11.15;;
35558;SDS011;21661;50.794;-1.066;2023-04-29T14:07:07;18.70;;;10.77;;
35558;SDS011;21661;50.794;-1.066;2023-04-29T14:09:33;17.08;;;11.05;;
35558;SDS011;21661;50.794;-1.066;2023-04-29T14:11:59;17.70;;;11.38;;
35558;SDS011;21661;50.794;-1.066;2023-04-29T14:14:24;18.95;;;10.68;;
35558;SDS011;21661;50.794;-1.066;2023-04-29T14:16:50;18.08;;;10.45;;
35558;SDS011;21661;50.794;-1.066;2023-04-29T14:19:15;18.10;;;10.32;;
35558;SDS011;21661;50.794;-1.066;2023-04-29T14:21:41;15.32;;;10.55;;
35558;SDS011;21661;50.794;-1.066;2023-04-29T14:24:07;16.13;;;10.70;;
35558;SDS011;21661;50.794;-1.066;2023-04-29T14:26:32;17.17;;;9.70;;
35558;SDS011;21661;50.794;-1.066;2023-04-29T14:28:58;15.77;;;10.02;;
35558;SDS011;21661;50.794;-1.066;2023-04-29T14:31:27;16.42;;;9.98;;
35558;SDS011;21661;50.794;-1.066;2023-04-29T14:33:54;15.80;;;9.60;;
35558;SDS011;21661;50.794;-1.066;2023-04-29T14:36:20;17.00;;;10.38;;
35558;SDS011;21661;50.794;-1.066;2023-04-29T14:38:46;17.20;;;11.55;;
35558;SDS011;21661;50.794;-1.066;2023-04-29T14:41:11;19.75;;;10.35;;
35558;SDS011;21661;50.794;-1.066;2023-04-29T14:43:37;16.30;;;9.77;;
35558;SDS011;21661;50.794;-1.066;2023-04-29T14:46:03;16.90;;;10.25;;
35558;SDS011;21661;50.794;-1.066;2023-04-29T14:48:30;17.23;;;9.88;;
35558;SDS011;21661;50.794;-1.066;2023-04-29T14:50:56;17.35;;;9.43;;
35558;SDS011;21661;50.794;-1.066;2023-04-29T14:53:21;14.43;;;9.40;;